sensor_id;sensor_type;location;lat;lon;timestamp;P1;durP1;ratioP1;P2;durP2;ratioP2
68250;SDS011;55066;51.560;4.642;2023-08-06T00:00:04;5.60;;;2.20;;
68250;SDS011;55066;51.560;4.642;2023-08-06T00:02:34;5.65;;;2.28;;
68250;SDS011;55066;51.560;4.642;2023-08-06T00:04:59;6.55;;;2.33;;
68250;SDS011;55066;51.560;4.642;2023-08-06T00:07:25;6.20;;;2.30;;
68250;SDS011;55066;51.560;4.642;2023-08-06T00:09:51;4.70;;;2.20;;
68250;SDS011;55066;51.560;4.642;2023-08-06T00:12:16;3.80;;;2.05;;
68250;SDS011;55066;51.560;4.642;2023-08-06T00:14:41;3.60;;;2.00;;
68250;SDS011;55066;51.560;4.642;2023-08-06T00:17:07;3.88;;;2.00;;
68250;SDS011;55066;51.560;4.642;2023-08-06T00:19:33;4.40;;;2.00;;
68250;SDS011;55066;51.560;4.642;2023-08-06T00:21:58;3.77;;;2.03;;
68250;SDS011;55066;51.560;4.642;2023-08-06T00:24:24;3.47;;;2.00;;
68250;SDS011;55066;51.560;4.642;2023-08-06T00:26:49;4.45;;;2.25;;
68250;SDS011;55066;51.560;4.642;2023-08-06T00:29:15;7.03;;;2.80;;
68250;SDS011;55066;51.560;4.642;2023-08-06T00:31:41;3.67;;;2.08;;
68250;SDS011;55066;51.560;4.642;2023-08-06T00:34:06;3.97;;;2.33;;
68250;SDS011;55066;51.560;4.642;2023-08-06T00:36:32;6.47;;;2.30;;
68250;SDS011;55066;51.560;4.642;2023-08-06T00:38:57;6.20;;;2.60;;
68250;SDS011;55066;51.560;4.642;2023-08-06T00:41:22;5.20;;;2.30;;
68250;SDS011;55066;51.560;4.642;2023-08-06T00:43:48;5.32;;;2.58;;
68250;SDS011;55066;51.560;4.642;2023-08-06T00:46:13;5.93;;;2.07;;
68250;SDS011;55066;51.560;4.642;2023-08-06T00:48:39;3.67;;;2.10;;
68250;SDS011;55066;51.560;4.642;2023-08-06T00:51:06;5.82;;;2.47;;
68250;SDS011;55066;51.560;4.642;2023-08-06T00:53:35;5.07;;;2.40;;
68250;SDS011;55066;51.560;4.642;2023-08-06T00:56:02;7.80;;;2.30;;
68250;SDS011;55066;51.560;4.642;2023-08-06T00:58:27;4.97;;;2.13;;
68250;SDS011;55066;51.560;4.642;2023-08-06T01:00:53;4.85;;;2.40;;
68250;SDS011;55066;51.560;4.642;2023-08-06T01:03:19;6.67;;;2.50;;
68250;SDS011;55066;51.560;4.642;2023-08-06T01:05:44;4.27;;;2.30;;
68250;SDS011;55066;51.560;4.642;2023-08-06T01:15:52;6.05;;;2.55;;
68250;SDS011;55066;51.560;4.642;2023-08-06T01:18:22;4.85;;;2.70;;
68250;SDS011;55066;51.560;4.642;2023-08-06T01:20:48;6.17;;;2.40;;
68250;SDS011;55066;51.560;4.642;2023-08-06T01:23:15;5.75;;;2.53;;
68250;SDS011;55066;51.560;4.642;2023-08-06T01:25:56;4.72;;;2.65;;
68250;SDS011;55066;51.560;4.642;2023-08-06T01:28:50;5.70;;;2.83;;
68250;SDS011;55066;51.560;4.642;2023-08-06T01:31:39;5.60;;;2.60;;
68250;SDS011;55066;51.560;4.642;2023-08-06T01:34:13;5.70;;;2.80;;
68250;SDS011;55066;51.560;4.642;2023-08-06T01:36:42;5.05;;;2.63;;
68250;SDS011;55066;51.560;4.642;2023-08-06T01:39:09;4.88;;;2.70;;
68250;SDS011;55066;51.560;4.642;2023-08-06T01:41:35;5.20;;;2.77;;
68250;SDS011;55066;51.560;4.642;2023-08-06T01:44:00;8.93;;;2.75;;
68250;SDS011;55066;51.560;4.642;2023-08-06T01:46:26;9.07;;;2.60;;
68250;SDS011;55066;51.560;4.642;2023-08-06T01:48:51;6.97;;;2.90;;
68250;SDS011;55066;51.560;4.642;2023-08-06T01:51:18;4.95;;;2.67;;
68250;SDS011;55066;51.560;4.642;2023-08-06T01:53:43;7.07;;;2.97;;
68250;SDS011;55066;51.560;4.642;2023-08-06T01:56:09;5.10;;;2.83;;
68250;SDS011;55066;51.560;4.642;2023-08-06T01:58:34;5.85;;;3.05;;
68250;SDS011;55066;51.560;4.642;2023-08-06T02:01:00;5.07;;;3.00;;
68250;SDS011;55066;51.560;4.642;2023-08-06T02:03:26;6.75;;;3.00;;
68250;SDS011;55066;51.560;4.642;2023-08-06T02:05:52;9.77;;;3.10;;
68250;SDS011;55066;51.560;4.642;2023-08-06T02:08:17;9.70;;;3.63;;
68250;SDS011;55066;51.560;4.642;2023-08-06T02:10:42;5.80;;;3.30;;
68250;SDS011;55066;51.560;4.642;2023-08-06T02:13:08;6.90;;;3.55;;
68250;SDS011;55066;51.560;4.642;2023-08-06T02:15:33;6.67;;;3.33;;
68250;SDS011;55066;51.560;4.642;2023-08-06T02:17:59;9.00;;;3.37;;
68250;SDS011;55066;51.560;4.642;2023-08-06T02:20:25;6.50;;;3.63;;
68250;SDS011;55066;51.560;4.642;2023-08-06T02:22:50;6.63;;;3.40;;
68250;SDS011;55066;51.560;4.642;2023-08-06T02:25:16;7.80;;;3.30;;
68250;SDS011;55066;51.560;4.642;2023-08-06T02:27:42;6.10;;;3.47;;
68250;SDS011;55066;51.560;4.642;2023-08-06T02:30:07;6.50;;;3.53;;
68250;SDS011;55066;51.560;4.642;2023-08-06T02:32:33;5.80;;;3.20;;
68250;SDS011;55066;51.560;4.642;2023-08-06T02:35:01;6.03;;;3.03;;
68250;SDS011;55066;51.560;4.642;2023-08-06T02:37:27;6.93;;;3.15;;
68250;SDS011;55066;51.560;4.642;2023-08-06T02:39:52;4.93;;;2.90;;
68250;SDS011;55066;51.560;4.642;2023-08-06T02:42:18;6.07;;;3.23;;
68250;SDS011;55066;51.560;4.642;2023-08-06T02:44:43;5.83;;;3.20;;
68250;SDS011;55066;51.560;4.642;2023-08-06T02:47:09;6.83;;;3.30;;
68250;SDS011;55066;51.560;4.642;2023-08-06T02:49:34;5.90;;;3.20;;
68250;SDS011;55066;51.560;4.642;2023-08-06T02:52:00;6.17;;;3.47;;
68250;SDS011;55066;51.560;4.642;2023-08-06T02:54:25;6.30;;;3.43;;
68250;SDS011;55066;51.560;4.642;2023-08-06T02:56:51;6.23;;;3.47;;
68250;SDS011;55066;51.560;4.642;2023-08-06T02:59:29;6.70;;;3.50;;
68250;SDS011;55066;51.560;4.642;2023-08-06T03:02:05;6.90;;;3.35;;
68250;SDS011;55066;51.560;4.642;2023-08-06T03:04:41;6.45;;;3.42;;
68250;SDS011;55066;51.560;4.642;2023-08-06T03:07:08;6.45;;;3.30;;
68250;SDS011;55066;51.560;4.642;2023-08-06T03:09:42;6.17;;;3.20;;
68250;SDS011;55066;51.560;4.642;2023-08-06T03:12:08;6.25;;;3.20;;
68250;SDS011;55066;51.560;4.642;2023-08-06T03:14:33;6.43;;;3.30;;
68250;SDS011;55066;51.560;4.642;2023-08-06T03:16:59;9.60;;;3.47;;
68250;SDS011;55066;51.560;4.642;2023-08-06T03:19:24;5.43;;;3.10;;
68250;SDS011;55066;51.560;4.642;2023-08-06T03:21:50;6.03;;;3.10;;
68250;SDS011;55066;51.560;4.642;2023-08-06T03:24:15;8.60;;;3.70;;
68250;SDS011;55066;51.560;4.642;2023-08-06T03:26:43;5.50;;;3.10;;
68250;SDS011;55066;51.560;4.642;2023-08-06T03:29:09;9.38;;;3.67;;
68250;SDS011;55066;51.560;4.642;2023-08-06T03:31:35;6.23;;;3.40;;
68250;SDS011;55066;51.560;4.642;2023-08-06T03:34:00;8.27;;;3.28;;
68250;SDS011;55066;51.560;4.642;2023-08-06T03:36:28;7.83;;;3.23;;
68250;SDS011;55066;51.560;4.642;2023-08-06T03:38:54;6.38;;;3.42;;
68250;SDS011;55066;51.560;4.642;2023-08-06T03:41:19;7.20;;;3.60;;
68250;SDS011;55066;51.560;4.642;2023-08-06T03:43:45;9.02;;;3.72;;
68250;SDS011;55066;51.560;4.642;2023-08-06T03:46:17;5.93;;;3.40;;
68250;SDS011;55066;51.560;4.642;2023-08-06T03:48:43;6.77;;;3.33;;
68250;SDS011;55066;51.560;4.642;2023-08-06T03:51:08;9.13;;;3.73;;
68250;SDS011;55066;51.560;4.642;2023-08-06T03:53:34;8.88;;;3.70;;
68250;SDS011;55066;51.560;4.642;2023-08-06T03:55:59;8.80;;;4.03;;
68250;SDS011;55066;51.560;4.642;2023-08-06T03:58:26;6.03;;;3.83;;
68250;SDS011;55066;51.560;4.642;2023-08-06T04:01:01;7.75;;;3.95;;
68250;SDS011;55066;51.560;4.642;2023-08-06T04:03:32;6.20;;;3.42;;
68250;SDS011;55066;51.560;4.642;2023-08-06T04:05:58;5.93;;;3.33;;
68250;SDS011;55066;51.560;4.642;2023-08-06T04:08:24;6.90;;;3.37;;
68250;SDS011;55066;51.560;4.642;2023-08-06T04:10:51;8.75;;;3.50;;
68250;SDS011;55066;51.560;4.642;2023-08-06T04:13:18;9.03;;;3.77;;
68250;SDS011;55066;51.560;4.642;2023-08-06T04:15:43;9.55;;;3.85;;
68250;SDS011;55066;51.560;4.642;2023-08-06T04:18:09;7.67;;;3.30;;
68250;SDS011;55066;51.560;4.642;2023-08-06T04:20:35;16.87;;;3.53;;
68250;SDS011;55066;51.560;4.642;2023-08-06T04:23:07;5.10;;;2.70;;
68250;SDS011;55066;51.560;4.642;2023-08-06T04:25:32;10.53;;;2.57;;
68250;SDS011;55066;51.560;4.642;2023-08-06T04:27:58;3.93;;;1.20;;
68250;SDS011;55066;51.560;4.642;2023-08-06T04:30:23;2.00;;;0.75;;
68250;SDS011;55066;51.560;4.642;2023-08-06T04:32:49;1.87;;;0.70;;
68250;SDS011;55066;51.560;4.642;2023-08-06T04:35:16;2.33;;;0.70;;
68250;SDS011;55066;51.560;4.642;2023-08-06T04:37:41;2.30;;;0.67;;
68250;SDS011;55066;51.560;4.642;2023-08-06T04:40:07;1.60;;;0.68;;
68250;SDS011;55066;51.560;4.642;2023-08-06T04:42:33;1.73;;;0.60;;
68250;SDS011;55066;51.560;4.642;2023-08-06T04:44:58;2.80;;;0.80;;
68250;SDS011;55066;51.560;4.642;2023-08-06T04:47:25;3.05;;;0.80;;
68250;SDS011;55066;51.560;4.642;2023-08-06T04:49:51;2.73;;;1.10;;
68250;SDS011;55066;51.560;4.642;2023-08-06T04:52:16;3.40;;;1.20;;
68250;SDS011;55066;51.560;4.642;2023-08-06T04:54:43;2.70;;;1.50;;
68250;SDS011;55066;51.560;4.642;2023-08-06T04:57:09;2.13;;;1.02;;
68250;SDS011;55066;51.560;4.642;2023-08-06T04:59:34;2.50;;;1.27;;
68250;SDS011;55066;51.560;4.642;2023-08-06T05:02:00;3.25;;;1.40;;
68250;SDS011;55066;51.560;4.642;2023-08-06T05:04:25;5.37;;;1.93;;
68250;SDS011;55066;51.560;4.642;2023-08-06T05:06:51;3.80;;;1.70;;
68250;SDS011;55066;51.560;4.642;2023-08-06T05:09:16;3.20;;;1.43;;
68250;SDS011;55066;51.560;4.642;2023-08-06T05:11:42;3.13;;;1.40;;
68250;SDS011;55066;51.560;4.642;2023-08-06T05:14:07;3.83;;;1.60;;
68250;SDS011;55066;51.560;4.642;2023-08-06T05:16:32;3.73;;;1.73;;
68250;SDS011;55066;51.560;4.642;2023-08-06T05:18:58;3.70;;;1.73;;
68250;SDS011;55066;51.560;4.642;2023-08-06T05:21:23;5.97;;;2.17;;
68250;SDS011;55066;51.560;4.642;2023-08-06T05:23:49;5.57;;;2.10;;
68250;SDS011;55066;51.560;4.642;2023-08-06T05:26:14;4.10;;;2.00;;
68250;SDS011;55066;51.560;4.642;2023-08-06T05:28:43;6.18;;;2.22;;
68250;SDS011;55066;51.560;4.642;2023-08-06T05:31:10;5.05;;;2.55;;
68250;SDS011;55066;51.560;4.642;2023-08-06T05:33:35;4.97;;;2.30;;
68250;SDS011;55066;51.560;4.642;2023-08-06T05:36:01;6.43;;;2.27;;
68250;SDS011;55066;51.560;4.642;2023-08-06T05:38:26;4.72;;;2.60;;
68250;SDS011;55066;51.560;4.642;2023-08-06T05:40:52;5.20;;;2.57;;
68250;SDS011;55066;51.560;4.642;2023-08-06T05:43:17;6.07;;;2.70;;
68250;SDS011;55066;51.560;4.642;2023-08-06T05:45:45;6.57;;;2.63;;
68250;SDS011;55066;51.560;4.642;2023-08-06T05:48:11;13.00;;;3.88;;
68250;SDS011;55066;51.560;4.642;2023-08-06T05:50:37;7.95;;;3.00;;
68250;SDS011;55066;51.560;4.642;2023-08-06T05:53:02;8.63;;;2.90;;
68250;SDS011;55066;51.560;4.642;2023-08-06T05:55:28;10.13;;;2.23;;
68250;SDS011;55066;51.560;4.642;2023-08-06T05:57:54;11.32;;;3.15;;
68250;SDS011;55066;51.560;4.642;2023-08-06T06:00:20;7.23;;;2.43;;
68250;SDS011;55066;51.560;4.642;2023-08-06T06:02:46;8.20;;;2.75;;
68250;SDS011;55066;51.560;4.642;2023-08-06T06:05:11;4.67;;;2.10;;
68250;SDS011;55066;51.560;4.642;2023-08-06T06:07:37;5.85;;;2.70;;
68250;SDS011;55066;51.560;4.642;2023-08-06T06:10:03;6.93;;;2.83;;
68250;SDS011;55066;51.560;4.642;2023-08-06T06:12:28;7.65;;;2.63;;
68250;SDS011;55066;51.560;4.642;2023-08-06T06:14:54;8.93;;;2.50;;
68250;SDS011;55066;51.560;4.642;2023-08-06T06:17:19;5.57;;;2.23;;
68250;SDS011;55066;51.560;4.642;2023-08-06T06:19:45;6.03;;;1.80;;
68250;SDS011;55066;51.560;4.642;2023-08-06T06:22:11;5.25;;;2.00;;
68250;SDS011;55066;51.560;4.642;2023-08-06T06:24:37;6.47;;;1.50;;
68250;SDS011;55066;51.560;4.642;2023-08-06T06:27:02;6.20;;;1.97;;
68250;SDS011;55066;51.560;4.642;2023-08-06T06:29:28;5.13;;;1.33;;
68250;SDS011;55066;51.560;4.642;2023-08-06T06:31:54;3.63;;;1.13;;
68250;SDS011;55066;51.560;4.642;2023-08-06T06:34:19;5.07;;;1.50;;
68250;SDS011;55066;51.560;4.642;2023-08-06T06:36:44;5.40;;;1.40;;
68250;SDS011;55066;51.560;4.642;2023-08-06T06:39:10;4.67;;;1.37;;
68250;SDS011;55066;51.560;4.642;2023-08-06T06:41:35;7.17;;;1.93;;
68250;SDS011;55066;51.560;4.642;2023-08-06T06:44:09;3.83;;;1.40;;
68250;SDS011;55066;51.560;4.642;2023-08-06T06:46:35;3.93;;;1.43;;
68250;SDS011;55066;51.560;4.642;2023-08-06T06:49:00;6.30;;;1.50;;
68250;SDS011;55066;51.560;4.642;2023-08-06T06:51:26;8.40;;;1.60;;
68250;SDS011;55066;51.560;4.642;2023-08-06T06:53:51;3.77;;;1.40;;
68250;SDS011;55066;51.560;4.642;2023-08-06T06:56:17;6.03;;;1.20;;
68250;SDS011;55066;51.560;4.642;2023-08-06T06:58:42;7.27;;;2.00;;
68250;SDS011;55066;51.560;4.642;2023-08-06T07:01:08;3.22;;;1.30;;
68250;SDS011;55066;51.560;4.642;2023-08-06T07:03:35;6.35;;;1.38;;
68250;SDS011;55066;51.560;4.642;2023-08-06T07:06:01;4.97;;;1.40;;
68250;SDS011;55066;51.560;4.642;2023-08-06T07:08:26;2.80;;;1.17;;
68250;SDS011;55066;51.560;4.642;2023-08-06T07:11:02;6.77;;;1.90;;
68250;SDS011;55066;51.560;4.642;2023-08-06T07:13:28;5.80;;;1.70;;
68250;SDS011;55066;51.560;4.642;2023-08-06T07:15:54;5.65;;;1.70;;
68250;SDS011;55066;51.560;4.642;2023-08-06T07:18:20;6.00;;;1.40;;
68250;SDS011;55066;51.560;4.642;2023-08-06T07:20:49;6.70;;;1.90;;
68250;SDS011;55066;51.560;4.642;2023-08-06T07:23:16;5.00;;;1.83;;
68250;SDS011;55066;51.560;4.642;2023-08-06T07:25:41;6.30;;;2.10;;
68250;SDS011;55066;51.560;4.642;2023-08-06T07:28:07;6.75;;;1.60;;
68250;SDS011;55066;51.560;4.642;2023-08-06T07:30:33;5.73;;;1.53;;
68250;SDS011;55066;51.560;4.642;2023-08-06T07:32:58;6.40;;;1.60;;
68250;SDS011;55066;51.560;4.642;2023-08-06T07:35:24;4.05;;;1.50;;
68250;SDS011;55066;51.560;4.642;2023-08-06T07:37:49;9.97;;;2.10;;
68250;SDS011;55066;51.560;4.642;2023-08-06T07:40:15;11.80;;;2.67;;
68250;SDS011;55066;51.560;4.642;2023-08-06T07:42:40;12.80;;;3.37;;
68250;SDS011;55066;51.560;4.642;2023-08-06T07:45:06;9.18;;;2.65;;
68250;SDS011;55066;51.560;4.642;2023-08-06T07:47:32;7.13;;;1.50;;
68250;SDS011;55066;51.560;4.642;2023-08-06T07:49:58;6.60;;;1.60;;
68250;SDS011;55066;51.560;4.642;2023-08-06T07:52:23;7.67;;;1.33;;
68250;SDS011;55066;51.560;4.642;2023-08-06T07:54:48;8.37;;;1.50;;
68250;SDS011;55066;51.560;4.642;2023-08-06T07:57:14;6.07;;;1.27;;
68250;SDS011;55066;51.560;4.642;2023-08-06T07:59:40;5.50;;;1.10;;
68250;SDS011;55066;51.560;4.642;2023-08-06T08:02:06;7.03;;;1.40;;
68250;SDS011;55066;51.560;4.642;2023-08-06T08:04:31;11.07;;;1.70;;
68250;SDS011;55066;51.560;4.642;2023-08-06T08:06:56;12.17;;;2.90;;
68250;SDS011;55066;51.560;4.642;2023-08-06T08:09:22;9.07;;;2.33;;
68250;SDS011;55066;51.560;4.642;2023-08-06T08:11:48;18.50;;;3.07;;
68250;SDS011;55066;51.560;4.642;2023-08-06T08:14:13;15.83;;;3.33;;
68250;SDS011;55066;51.560;4.642;2023-08-06T08:16:38;22.83;;;3.90;;
68250;SDS011;55066;51.560;4.642;2023-08-06T08:19:04;15.47;;;3.93;;
68250;SDS011;55066;51.560;4.642;2023-08-06T08:21:29;16.35;;;3.72;;
68250;SDS011;55066;51.560;4.642;2023-08-06T08:23:55;13.20;;;3.00;;
68250;SDS011;55066;51.560;4.642;2023-08-06T08:26:20;13.60;;;3.37;;
68250;SDS011;55066;51.560;4.642;2023-08-06T08:28:46;13.10;;;2.73;;
68250;SDS011;55066;51.560;4.642;2023-08-06T08:31:11;20.42;;;3.63;;
68250;SDS011;55066;51.560;4.642;2023-08-06T08:33:40;15.77;;;3.57;;
68250;SDS011;55066;51.560;4.642;2023-08-06T08:36:05;13.80;;;2.50;;
68250;SDS011;55066;51.560;4.642;2023-08-06T08:38:31;16.20;;;3.10;;
68250;SDS011;55066;51.560;4.642;2023-08-06T08:40:56;11.37;;;2.20;;
68250;SDS011;55066;51.560;4.642;2023-08-06T08:43:22;10.90;;;2.15;;
68250;SDS011;55066;51.560;4.642;2023-08-06T08:45:52;7.10;;;2.10;;
68250;SDS011;55066;51.560;4.642;2023-08-06T08:48:24;9.98;;;2.33;;
68250;SDS011;55066;51.560;4.642;2023-08-06T08:50:50;12.52;;;2.67;;
68250;SDS011;55066;51.560;4.642;2023-08-06T08:53:17;16.70;;;3.10;;
68250;SDS011;55066;51.560;4.642;2023-08-06T08:55:43;7.53;;;1.77;;
68250;SDS011;55066;51.560;4.642;2023-08-06T08:58:11;10.40;;;2.07;;
68250;SDS011;55066;51.560;4.642;2023-08-06T09:00:38;6.75;;;1.40;;
68250;SDS011;55066;51.560;4.642;2023-08-06T09:03:06;11.60;;;1.42;;
68250;SDS011;55066;51.560;4.642;2023-08-06T09:05:33;12.50;;;1.90;;
68250;SDS011;55066;51.560;4.642;2023-08-06T09:08:02;7.47;;;1.40;;
68250;SDS011;55066;51.560;4.642;2023-08-06T09:10:29;8.40;;;1.10;;
68250;SDS011;55066;51.560;4.642;2023-08-06T09:12:55;5.53;;;1.20;;
68250;SDS011;55066;51.560;4.642;2023-08-06T09:15:26;5.63;;;1.27;;
68250;SDS011;55066;51.560;4.642;2023-08-06T09:17:52;5.07;;;0.80;;
68250;SDS011;55066;51.560;4.642;2023-08-06T09:20:18;7.32;;;0.93;;
68250;SDS011;55066;51.560;4.642;2023-08-06T09:22:44;5.65;;;1.20;;
68250;SDS011;55066;51.560;4.642;2023-08-06T09:25:10;5.27;;;1.07;;
68250;SDS011;55066;51.560;4.642;2023-08-06T09:27:39;8.87;;;1.37;;
68250;SDS011;55066;51.560;4.642;2023-08-06T09:30:05;6.57;;;0.95;;
68250;SDS011;55066;51.560;4.642;2023-08-06T09:32:47;5.25;;;0.85;;
68250;SDS011;55066;51.560;4.642;2023-08-06T09:35:16;2.53;;;0.80;;
68250;SDS011;55066;51.560;4.642;2023-08-06T09:37:42;4.78;;;0.70;;
68250;SDS011;55066;51.560;4.642;2023-08-06T09:40:24;7.27;;;1.20;;
68250;SDS011;55066;51.560;4.642;2023-08-06T09:42:50;5.50;;;1.10;;
68250;SDS011;55066;51.560;4.642;2023-08-06T09:45:16;4.67;;;0.77;;
68250;SDS011;55066;51.560;4.642;2023-08-06T09:47:41;3.87;;;0.80;;
68250;SDS011;55066;51.560;4.642;2023-08-06T09:50:14;4.38;;;1.10;;
68250;SDS011;55066;51.560;4.642;2023-08-06T09:52:42;10.53;;;1.00;;
68250;SDS011;55066;51.560;4.642;2023-08-06T09:55:10;5.28;;;1.20;;
68250;SDS011;55066;51.560;4.642;2023-08-06T09:57:37;5.25;;;1.38;;
68250;SDS011;55066;51.560;4.642;2023-08-06T10:00:03;3.28;;;1.02;;
68250;SDS011;55066;51.560;4.642;2023-08-06T10:02:38;4.32;;;1.02;;
68250;SDS011;55066;51.560;4.642;2023-08-06T10:05:05;3.47;;;1.20;;
68250;SDS011;55066;51.560;4.642;2023-08-06T10:07:31;4.40;;;1.00;;
68250;SDS011;55066;51.560;4.642;2023-08-06T10:09:56;4.00;;;0.70;;
68250;SDS011;55066;51.560;4.642;2023-08-06T10:12:22;6.03;;;1.63;;
68250;SDS011;55066;51.560;4.642;2023-08-06T10:14:50;4.82;;;1.25;;
68250;SDS011;55066;51.560;4.642;2023-08-06T10:17:20;2.05;;;0.90;;
68250;SDS011;55066;51.560;4.642;2023-08-06T10:19:47;3.57;;;1.07;;
68250;SDS011;55066;51.560;4.642;2023-08-06T10:22:14;6.40;;;1.58;;
68250;SDS011;55066;51.560;4.642;2023-08-06T10:24:48;4.70;;;1.05;;
68250;SDS011;55066;51.560;4.642;2023-08-06T10:27:28;5.28;;;1.05;;
68250;SDS011;55066;51.560;4.642;2023-08-06T10:29:56;6.53;;;1.33;;
68250;SDS011;55066;51.560;4.642;2023-08-06T10:32:48;6.25;;;1.20;;
68250;SDS011;55066;51.560;4.642;2023-08-06T10:38:19;4.75;;;1.25;;
68250;SDS011;55066;51.560;4.642;2023-08-06T10:45:58;9.30;;;2.35;;
68250;SDS011;55066;51.560;4.642;2023-08-06T10:48:45;9.05;;;2.20;;
68250;SDS011;55066;51.560;4.642;2023-08-06T10:51:11;10.10;;;2.50;;
68250;SDS011;55066;51.560;4.642;2023-08-06T10:53:42;6.55;;;1.70;;
68250;SDS011;55066;51.560;4.642;2023-08-06T10:56:15;8.23;;;1.60;;
68250;SDS011;55066;51.560;4.642;2023-08-06T10:58:45;8.73;;;2.50;;
68250;SDS011;55066;51.560;4.642;2023-08-06T11:01:11;13.68;;;3.13;;
68250;SDS011;55066;51.560;4.642;2023-08-06T11:03:38;11.75;;;2.03;;
68250;SDS011;55066;51.560;4.642;2023-08-06T11:06:06;4.90;;;1.00;;
68250;SDS011;55066;51.560;4.642;2023-08-06T11:08:36;5.40;;;1.07;;
68250;SDS011;55066;51.560;4.642;2023-08-06T11:11:09;4.35;;;0.77;;
68250;SDS011;55066;51.560;4.642;2023-08-06T11:13:38;5.90;;;1.35;;
68250;SDS011;55066;51.560;4.642;2023-08-06T11:16:04;4.63;;;1.00;;
68250;SDS011;55066;51.560;4.642;2023-08-06T11:18:31;3.05;;;0.85;;
68250;SDS011;55066;51.560;4.642;2023-08-06T11:21:00;5.50;;;0.87;;
68250;SDS011;55066;51.560;4.642;2023-08-06T11:23:27;3.22;;;0.80;;
68250;SDS011;55066;51.560;4.642;2023-08-06T11:25:56;7.43;;;1.85;;
68250;SDS011;55066;51.560;4.642;2023-08-06T11:28:22;8.20;;;1.67;;
68250;SDS011;55066;51.560;4.642;2023-08-06T11:30:48;11.27;;;1.95;;
68250;SDS011;55066;51.560;4.642;2023-08-06T11:33:35;9.93;;;2.30;;
68250;SDS011;55066;51.560;4.642;2023-08-06T11:36:00;13.00;;;2.72;;
68250;SDS011;55066;51.560;4.642;2023-08-06T11:38:29;12.75;;;2.40;;
68250;SDS011;55066;51.560;4.642;2023-08-06T11:40:55;14.03;;;1.70;;
68250;SDS011;55066;51.560;4.642;2023-08-06T11:43:21;3.67;;;1.20;;
68250;SDS011;55066;51.560;4.642;2023-08-06T11:45:48;8.30;;;1.63;;
68250;SDS011;55066;51.560;4.642;2023-08-06T11:48:19;10.17;;;1.93;;
68250;SDS011;55066;51.560;4.642;2023-08-06T11:50:44;9.30;;;2.67;;
68250;SDS011;55066;51.560;4.642;2023-08-06T11:53:12;3.28;;;1.15;;
68250;SDS011;55066;51.560;4.642;2023-08-06T11:55:52;5.97;;;0.90;;
68250;SDS011;55066;51.560;4.642;2023-08-06T11:58:17;5.75;;;1.48;;
68250;SDS011;55066;51.560;4.642;2023-08-06T12:00:43;4.87;;;1.23;;
68250;SDS011;55066;51.560;4.642;2023-08-06T12:03:09;4.67;;;0.80;;
68250;SDS011;55066;51.560;4.642;2023-08-06T12:05:35;5.18;;;1.02;;
68250;SDS011;55066;51.560;4.642;2023-08-06T12:08:01;4.80;;;1.40;;
68250;SDS011;55066;51.560;4.642;2023-08-06T12:10:28;8.38;;;1.70;;
68250;SDS011;55066;51.560;4.642;2023-08-06T12:12:56;10.37;;;1.83;;
68250;SDS011;55066;51.560;4.642;2023-08-06T12:15:22;11.95;;;1.90;;
68250;SDS011;55066;51.560;4.642;2023-08-06T12:17:48;9.00;;;2.38;;
68250;SDS011;55066;51.560;4.642;2023-08-06T12:20:14;5.63;;;1.57;;
68250;SDS011;55066;51.560;4.642;2023-08-06T12:22:40;10.68;;;1.77;;
68250;SDS011;55066;51.560;4.642;2023-08-06T12:25:06;8.53;;;2.13;;
68250;SDS011;55066;51.560;4.642;2023-08-06T12:27:43;7.95;;;1.38;;
68250;SDS011;55066;51.560;4.642;2023-08-06T12:30:11;3.63;;;1.00;;
68250;SDS011;55066;51.560;4.642;2023-08-06T12:32:37;7.20;;;0.93;;
68250;SDS011;55066;51.560;4.642;2023-08-06T12:35:03;6.37;;;1.17;;
68250;SDS011;55066;51.560;4.642;2023-08-06T12:37:30;5.22;;;1.13;;
68250;SDS011;55066;51.560;4.642;2023-08-06T12:39:55;5.97;;;0.80;;
68250;SDS011;55066;51.560;4.642;2023-08-06T12:42:21;6.15;;;0.90;;
68250;SDS011;55066;51.560;4.642;2023-08-06T12:44:48;7.80;;;1.00;;
68250;SDS011;55066;51.560;4.642;2023-08-06T12:47:14;4.45;;;0.80;;
68250;SDS011;55066;51.560;4.642;2023-08-06T12:49:40;4.93;;;0.83;;
68250;SDS011;55066;51.560;4.642;2023-08-06T12:52:06;6.18;;;1.10;;
68250;SDS011;55066;51.560;4.642;2023-08-06T12:54:32;3.63;;;0.80;;
68250;SDS011;55066;51.560;4.642;2023-08-06T12:57:04;3.35;;;0.85;;
68250;SDS011;55066;51.560;4.642;2023-08-06T12:59:30;6.20;;;0.98;;
68250;SDS011;55066;51.560;4.642;2023-08-06T13:01:56;6.22;;;1.02;;
68250;SDS011;55066;51.560;4.642;2023-08-06T13:04:21;4.50;;;1.13;;
68250;SDS011;55066;51.560;4.642;2023-08-06T13:06:47;6.30;;;1.00;;
68250;SDS011;55066;51.560;4.642;2023-08-06T13:09:13;7.47;;;1.23;;
68250;SDS011;55066;51.560;4.642;2023-08-06T13:11:39;5.47;;;1.37;;
68250;SDS011;55066;51.560;4.642;2023-08-06T13:14:09;4.50;;;1.05;;
68250;SDS011;55066;51.560;4.642;2023-08-06T13:16:36;4.82;;;0.82;;
68250;SDS011;55066;51.560;4.642;2023-08-06T13:19:04;4.93;;;0.90;;
68250;SDS011;55066;51.560;4.642;2023-08-06T13:24:10;3.65;;;0.80;;
68250;SDS011;55066;51.560;4.642;2023-08-06T13:26:36;7.37;;;1.10;;
68250;SDS011;55066;51.560;4.642;2023-08-06T13:29:01;5.75;;;0.93;;
68250;SDS011;55066;51.560;4.642;2023-08-06T13:31:28;5.97;;;1.00;;
68250;SDS011;55066;51.560;4.642;2023-08-06T13:33:54;5.10;;;0.77;;
68250;SDS011;55066;51.560;4.642;2023-08-06T13:36:23;5.22;;;0.93;;
68250;SDS011;55066;51.560;4.642;2023-08-06T13:38:48;2.58;;;0.70;;
68250;SDS011;55066;51.560;4.642;2023-08-06T13:41:14;3.63;;;1.10;;
68250;SDS011;55066;51.560;4.642;2023-08-06T13:43:40;2.72;;;0.70;;
68250;SDS011;55066;51.560;4.642;2023-08-06T13:46:05;3.27;;;0.80;;
68250;SDS011;55066;51.560;4.642;2023-08-06T13:48:31;5.87;;;0.70;;
68250;SDS011;55066;51.560;4.642;2023-08-06T13:50:57;5.00;;;0.85;;
68250;SDS011;55066;51.560;4.642;2023-08-06T13:53:22;3.80;;;1.03;;
68250;SDS011;55066;51.560;4.642;2023-08-06T13:55:48;5.63;;;0.93;;
68250;SDS011;55066;51.560;4.642;2023-08-06T13:58:13;7.30;;;1.10;;
68250;SDS011;55066;51.560;4.642;2023-08-06T14:00:39;7.40;;;1.30;;
68250;SDS011;55066;51.560;4.642;2023-08-06T14:03:04;4.23;;;1.33;;
68250;SDS011;55066;51.560;4.642;2023-08-06T14:05:30;6.43;;;0.90;;
68250;SDS011;55066;51.560;4.642;2023-08-06T14:07:55;5.10;;;0.80;;
68250;SDS011;55066;51.560;4.642;2023-08-06T14:10:20;6.10;;;0.90;;
68250;SDS011;55066;51.560;4.642;2023-08-06T14:12:46;4.03;;;0.80;;
68250;SDS011;55066;51.560;4.642;2023-08-06T14:15:11;6.60;;;1.02;;
68250;SDS011;55066;51.560;4.642;2023-08-06T14:17:37;4.23;;;0.70;;
68250;SDS011;55066;51.560;4.642;2023-08-06T14:20:04;3.85;;;0.90;;
68250;SDS011;55066;51.560;4.642;2023-08-06T14:22:32;2.23;;;0.47;;
68250;SDS011;55066;51.560;4.642;2023-08-06T14:24:58;3.40;;;0.50;;
68250;SDS011;55066;51.560;4.642;2023-08-06T14:27:24;3.10;;;0.50;;
68250;SDS011;55066;51.560;4.642;2023-08-06T14:29:50;5.03;;;0.70;;
68250;SDS011;55066;51.560;4.642;2023-08-06T14:32:15;1.97;;;0.57;;
68250;SDS011;55066;51.560;4.642;2023-08-06T14:34:43;4.18;;;0.73;;
68250;SDS011;55066;51.560;4.642;2023-08-06T14:37:10;4.95;;;0.80;;
68250;SDS011;55066;51.560;4.642;2023-08-06T14:39:36;3.97;;;0.57;;
68250;SDS011;55066;51.560;4.642;2023-08-06T14:42:01;4.60;;;0.83;;
68250;SDS011;55066;51.560;4.642;2023-08-06T14:44:27;2.58;;;0.70;;
68250;SDS011;55066;51.560;4.642;2023-08-06T14:46:54;4.38;;;0.70;;
68250;SDS011;55066;51.560;4.642;2023-08-06T14:49:19;4.80;;;0.80;;
68250;SDS011;55066;51.560;4.642;2023-08-06T14:51:45;5.20;;;0.70;;
68250;SDS011;55066;51.560;4.642;2023-08-06T14:54:10;7.03;;;1.17;;
68250;SDS011;55066;51.560;4.642;2023-08-06T14:56:36;5.43;;;0.90;;
68250;SDS011;55066;51.560;4.642;2023-08-06T14:59:02;6.07;;;1.00;;
68250;SDS011;55066;51.560;4.642;2023-08-06T15:01:27;6.75;;;1.67;;